sensor_id;sensor_type;location;lat;lon;timestamp;P1;durP1;ratioP1;P2;durP2;ratioP2
58982;SDS011;44771;49.982;8.560;2022-10-16T03:38:28;7.30;;;6.70;;
58982;SDS011;44771;49.982;8.560;2022-10-16T03:43:29;7.55;;;7.10;;
58982;SDS011;44771;49.982;8.560;2022-10-16T03:48:31;7.40;;;6.90;;
58982;SDS011;44771;49.982;8.560;2022-10-16T03:53:34;7.37;;;6.87;;
58982;SDS011;44771;49.982;8.560;2022-10-16T03:58:36;7.90;;;7.30;;
58982;SDS011;44771;49.982;8.560;2022-10-16T04:03:38;8.80;;;8.05;;
58982;SDS011;44771;49.982;8.560;2022-10-16T04:08:43;7.57;;;6.87;;
58982;SDS011;44771;49.982;8.560;2022-10-16T04:13:44;8.05;;;7.05;;
58982;SDS011;44771;49.982;8.560;2022-10-16T04:18:46;7.55;;;6.95;;
58982;SDS011;44771;49.982;8.560;2022-10-16T04:23:49;9.00;;;8.20;;
58982;SDS011;44771;49.982;8.560;2022-10-16T04:28:51;7.30;;;6.62;;
58982;SDS011;44771;49.982;8.560;2022-10-16T04:33:52;8.13;;;7.30;;
58982;SDS011;44771;49.982;8.560;2022-10-16T04:38:56;7.35;;;6.90;;
58982;SDS011;44771;49.982;8.560;2022-10-16T04:43:57;6.93;;;6.32;;
58982;SDS011;44771;49.982;8.560;2022-10-16T04:48:59;7.62;;;6.80;;
58982;SDS011;44771;49.982;8.560;2022-10-16T04:54:02;6.53;;;6.12;;
58982;SDS011;44771;49.982;8.560;2022-10-16T04:59:04;6.72;;;6.20;;
58982;SDS011;44771;49.982;8.560;2022-10-16T05:04:06;7.22;;;6.60;;
58982;SDS011;44771;49.982;8.560;2022-10-16T05:09:09;6.75;;;6.35;;
58982;SDS011;44771;49.982;8.560;2022-10-16T05:14:11;6.93;;;6.45;;
58982;SDS011;44771;49.982;8.560;2022-10-16T05:19:13;7.15;;;6.65;;
58982;SDS011;44771;49.982;8.560;2022-10-16T05:24:29;7.05;;;6.65;;
58982;SDS011;44771;49.982;8.560;2022-10-16T05:29:30;7.37;;;6.87;;
58982;SDS011;44771;49.982;8.560;2022-10-16T05:34:33;6.97;;;6.47;;
58982;SDS011;44771;49.982;8.560;2022-10-16T05:39:37;7.87;;;7.18;;
58982;SDS011;44771;49.982;8.560;2022-10-16T05:44:38;7.47;;;7.00;;
58982;SDS011;44771;49.982;8.560;2022-10-16T05:49:40;7.93;;;7.32;;
58982;SDS011;44771;49.982;8.560;2022-10-16T05:54:43;8.35;;;7.68;;
58982;SDS011;44771;49.982;8.560;2022-10-16T05:59:45;8.65;;;7.93;;
58982;SDS011;44771;49.982;8.560;2022-10-16T06:04:47;8.52;;;7.93;;
58982;SDS011;44771;49.982;8.560;2022-10-16T06:09:50;8.80;;;8.10;;
58982;SDS011;44771;49.982;8.560;2022-10-16T06:14:53;7.90;;;7.37;;
58982;SDS011;44771;49.982;8.560;2022-10-16T06:19:55;8.15;;;7.55;;
58982;SDS011;44771;49.982;8.560;2022-10-16T06:25:00;8.57;;;7.78;;
58982;SDS011;44771;49.982;8.560;2022-10-16T06:30:02;9.27;;;8.48;;
58982;SDS011;44771;49.982;8.560;2022-10-16T06:35:04;8.38;;;7.62;;
58982;SDS011;44771;49.982;8.560;2022-10-16T06:40:07;9.07;;;8.38;;
58982;SDS011;44771;49.982;8.560;2022-10-16T06:45:09;9.82;;;8.82;;
58982;SDS011;44771;49.982;8.560;2022-10-16T06:50:11;9.77;;;8.77;;
58982;SDS011;44771;49.982;8.560;2022-10-16T06:55:14;10.73;;;9.57;;
58982;SDS011;44771;49.982;8.560;2022-10-16T07:00:16;11.60;;;10.15;;
58982;SDS011;44771;49.982;8.560;2022-10-16T07:05:18;11.57;;;10.23;;
58982;SDS011;44771;49.982;8.560;2022-10-16T07:10:21;13.20;;;10.45;;
58982;SDS011;44771;49.982;8.560;2022-10-16T07:15:24;14.25;;;11.55;;
58982;SDS011;44771;49.982;8.560;2022-10-16T07:20:26;16.40;;;11.05;;
58982;SDS011;44771;49.982;8.560;2022-10-16T07:25:29;13.07;;;11.68;;
58982;SDS011;44771;49.982;8.560;2022-10-16T07:30:31;14.20;;;10.85;;
58982;SDS011;44771;49.982;8.560;2022-10-16T07:35:36;12.90;;;11.60;;
58982;SDS011;44771;49.982;8.560;2022-10-16T07:40:39;16.52;;;11.32;;
58982;SDS011;44771;49.982;8.560;2022-10-16T07:45:46;12.90;;;11.45;;
58982;SDS011;44771;49.982;8.560;2022-10-16T07:50:48;18.17;;;12.20;;
58982;SDS011;44771;49.982;8.560;2022-10-16T07:55:52;17.45;;;12.15;;
58982;SDS011;44771;49.982;8.560;2022-10-16T08:00:58;14.40;;;12.13;;
58982;SDS011;44771;49.982;8.560;2022-10-16T08:06:00;14.00;;;12.37;;
58982;SDS011;44771;49.982;8.560;2022-10-16T08:11:04;16.45;;;12.73;;
58982;SDS011;44771;49.982;8.560;2022-10-16T08:16:06;16.35;;;12.95;;
58982;SDS011;44771;49.982;8.560;2022-10-16T08:21:12;14.77;;;12.30;;
58982;SDS011;44771;49.982;8.560;2022-10-16T08:26:23;17.98;;;12.52;;
58982;SDS011;44771;49.982;8.560;2022-10-16T08:31:25;17.50;;;12.40;;
58982;SDS011;44771;49.982;8.560;2022-10-16T08:36:27;14.80;;;11.48;;
58982;SDS011;44771;49.982;8.560;2022-10-16T08:41:35;13.43;;;11.12;;
58982;SDS011;44771;49.982;8.560;2022-10-16T08:46:54;14.35;;;11.65;;
58982;SDS011;44771;49.982;8.560;2022-10-16T08:57:22;18.75;;;12.65;;
58982;SDS011;44771;49.982;8.560;2022-10-16T09:02:27;15.63;;;12.02;;
58982;SDS011;44771;49.982;8.560;2022-10-16T09:07:35;14.02;;;11.63;;
58982;SDS011;44771;49.982;8.560;2022-10-16T09:12:45;15.60;;;12.65;;
58982;SDS011;44771;49.982;8.560;2022-10-16T09:17:54;15.32;;;11.90;;
58982;SDS011;44771;49.982;8.560;2022-10-16T09:23:08;18.75;;;13.98;;
58982;SDS011;44771;49.982;8.560;2022-10-16T09:28:16;19.02;;;14.52;;
58982;SDS011;44771;49.982;8.560;2022-10-16T09:33:20;23.70;;;16.53;;
58982;SDS011;44771;49.982;8.560;2022-10-16T09:38:28;27.70;;;15.63;;
58982;SDS011;44771;49.982;8.560;2022-10-16T09:54:52;23.95;;;16.73;;
58982;SDS011;44771;49.982;8.560;2022-10-16T10:05:31;22.85;;;16.23;;
58982;SDS011;44771;49.982;8.560;2022-10-16T10:10:37;18.90;;;16.85;;
58982;SDS011;44771;49.982;8.560;2022-10-16T10:21:21;21.05;;;16.77;;
58982;SDS011;44771;49.982;8.560;2022-10-16T10:26:44;22.27;;;17.40;;
58982;SDS011;44771;49.982;8.560;2022-10-16T10:32:03;24.87;;;18.05;;
58982;SDS011;44771;49.982;8.560;2022-10-16T10:37:40;20.48;;;16.95;;
58982;SDS011;44771;49.982;8.560;2022-10-16T10:42:59;20.40;;;16.30;;
58982;SDS011;44771;49.982;8.560;2022-10-16T10:48:19;16.40;;;14.70;;
58982;SDS011;44771;49.982;8.560;2022-10-16T11:31:24;9.02;;;8.35;;
58982;SDS011;44771;49.982;8.560;2022-10-16T11:36:32;10.93;;;8.30;;
58982;SDS011;44771;49.982;8.560;2022-10-16T11:41:47;8.90;;;7.97;;
58982;SDS011;44771;49.982;8.560;2022-10-16T11:47:01;11.70;;;7.82;;
58982;SDS011;44771;49.982;8.560;2022-10-16T11:52:30;11.02;;;6.95;;
58982;SDS011;44771;49.982;8.560;2022-10-16T11:57:42;7.97;;;7.28;;
58982;SDS011;44771;49.982;8.560;2022-10-16T12:02:50;8.93;;;8.10;;
58982;SDS011;44771;49.982;8.560;2022-10-16T12:08:08;7.60;;;7.15;;
58982;SDS011;44771;49.982;8.560;2022-10-16T12:13:33;6.57;;;6.18;;
58982;SDS011;44771;49.982;8.560;2022-10-16T12:18:35;7.20;;;6.70;;
58982;SDS011;44771;49.982;8.560;2022-10-16T12:23:38;6.87;;;6.37;;
58982;SDS011;44771;49.982;8.560;2022-10-16T12:28:51;6.22;;;5.82;;
58982;SDS011;44771;49.982;8.560;2022-10-16T12:33:56;6.72;;;6.22;;
58982;SDS011;44771;49.982;8.560;2022-10-16T12:38:59;6.57;;;6.15;;
58982;SDS011;44771;49.982;8.560;2022-10-16T12:44:03;7.00;;;6.55;;
58982;SDS011;44771;49.982;8.560;2022-10-16T12:49:06;6.75;;;6.35;;
58982;SDS011;44771;49.982;8.560;2022-10-16T12:54:22;7.95;;;7.25;;
58982;SDS011;44771;49.982;8.560;2022-10-16T12:59:32;6.50;;;6.10;;
58982;SDS011;44771;49.982;8.560;2022-10-16T13:04:47;7.00;;;6.32;;
58982;SDS011;44771;49.982;8.560;2022-10-16T13:10:06;7.25;;;6.75;;
58982;SDS011;44771;49.982;8.560;2022-10-16T13:15:22;9.05;;;6.35;;
58982;SDS011;44771;49.982;8.560;2022-10-16T13:20:31;7.72;;;7.18;;
58982;SDS011;44771;49.982;8.560;2022-10-16T13:46:44;7.65;;;7.05;;
58982;SDS011;44771;49.982;8.560;2022-10-16T13:51:55;7.85;;;7.25;;
58982;SDS011;44771;49.982;8.560;2022-10-16T14:07:36;10.55;;;9.32;;
58982;SDS011;44771;49.982;8.560;2022-10-16T14:18:44;8.13;;;7.32;;
58982;SDS011;44771;49.982;8.560;2022-10-16T14:23:55;8.48;;;7.78;;
58982;SDS011;44771;49.982;8.560;2022-10-16T14:29:17;8.63;;;7.97;;
58982;SDS011;44771;49.982;8.560;2022-10-16T14:34:24;8.95;;;8.15;;
58982;SDS011;44771;49.982;8.560;2022-10-16T14:39:34;9.30;;;8.60;;
58982;SDS011;44771;49.982;8.560;2022-10-16T14:44:39;8.68;;;7.87;;
58982;SDS011;44771;49.982;8.560;2022-10-16T14:49:41;7.82;;;7.12;;
58982;SDS011;44771;49.982;8.560;2022-10-16T14:54:49;9.05;;;8.35;;
58982;SDS011;44771;49.982;8.560;2022-10-16T15:00:03;9.02;;;8.27;;
58982;SDS011;44771;49.982;8.560;2022-10-16T15:05:33;8.00;;;7.35;;
58982;SDS011;44771;49.982;8.560;2022-10-16T15:10:47;8.75;;;8.05;;
58982;SDS011;44771;49.982;8.560;2022-10-16T16:35:37;10.63;;;9.50;;
58982;SDS011;44771;49.982;8.560;2022-10-16T16:40:41;9.98;;;9.10;;
58982;SDS011;44771;49.982;8.560;2022-10-16T16:45:45;9.95;;;9.05;;
58982;SDS011;44771;49.982;8.560;2022-10-16T16:50:47;10.18;;;8.82;;
58982;SDS011;44771;49.982;8.560;2022-10-16T16:55:49;10.35;;;9.50;;
58982;SDS011;44771;49.982;8.560;2022-10-16T18:09:33;9.73;;;8.82;;
58982;SDS011;44771;49.982;8.560;2022-10-16T18:14:34;9.88;;;9.00;;
58982;SDS011;44771;49.982;8.560;2022-10-16T18:41:33;10.88;;;9.93;;
58982;SDS011;44771;49.982;8.560;2022-10-16T18:46:35;11.65;;;10.57;;
58982;SDS011;44771;49.982;8.560;2022-10-16T18:52:03;10.70;;;9.75;;
58982;SDS011;44771;49.982;8.560;2022-10-16T19:50:58;11.32;;;10.10;;
58982;SDS011;44771;49.982;8.560;2022-10-16T19:56:04;12.15;;;11.05;;
58982;SDS011;44771;49.982;8.560;2022-10-16T20:33:28;12.93;;;11.50;;
58982;SDS011;44771;49.982;8.560;2022-10-16T20:59:44;12.37;;;11.18;;
58982;SDS011;44771;49.982;8.560;2022-10-16T21:04:46;13.50;;;10.68;;
58982;SDS011;44771;49.982;8.560;2022-10-16T21:09:49;11.93;;;10.68;;
58982;SDS011;44771;49.982;8.560;2022-10-16T21:14:51;13.20;;;10.05;;
58982;SDS011;44771;49.982;8.560;2022-10-16T21:20:17;16.62;;;10.93;;
58982;SDS011;44771;49.982;8.560;2022-10-16T21:25:22;12.35;;;11.05;;
58982;SDS011;44771;49.982;8.560;2022-10-16T21:30:23;11.88;;;10.82;;
58982;SDS011;44771;49.982;8.560;2022-10-16T21:35:25;14.25;;;10.75;;
58982;SDS011;44771;49.982;8.560;2022-10-16T21:40:28;11.18;;;10.18;;
58982;SDS011;44771;49.982;8.560;2022-10-16T21:45:31;16.02;;;11.57;;
58982;SDS011;44771;49.982;8.560;2022-10-16T21:50:34;12.60;;;11.30;;
58982;SDS011;44771;49.982;8.560;2022-10-16T21:55:37;17.95;;;10.80;;
58982;SDS011;44771;49.982;8.560;2022-10-16T22:00:38;11.18;;;9.98;;
58982;SDS011;44771;49.982;8.560;2022-10-16T22:05:40;12.15;;;10.93;;
58982;SDS011;44771;49.982;8.560;2022-10-16T22:10:43;21.67;;;11.63;;
58982;SDS011;44771;49.982;8.560;2022-10-16T22:15:48;13.10;;;11.48;;
58982;SDS011;44771;49.982;8.560;2022-10-16T22:25:58;15.98;;;11.70;;
